| time (UTC) | temp C | wind direction | speed KPH | gust KPH | rain 1hr cm | rain 24hr cm | rain mn cm | humidity % | barometer mb |
| 20260506161541 | 15 | 212 | 8.0 | 24.1 | 0.00 | 0.00 | 0.00 | 83 | 1010.9 |
| 20260506160042 | 15 | 199 | 11.3 | 25.7 | 0.00 | 0.00 | 0.00 | 82 | 1011.1 |
| 20260506154547 | 16 | 171 | 11.3 | 30.6 | 0.00 | 0.00 | 0.00 | 81 | 1011.3 |
| 20260506153037 | 16 | 222 | 12.9 | 27.4 | 0.00 | 0.00 | 0.00 | 81 | 1011.6 |
| 20260506151537 | 15 | 192 | 9.7 | 25.7 | 0.00 | 0.00 | 0.00 | 82 | 1011.5 |
| 20260506150045 | 15 | 159 | 8.0 | 30.6 | 0.00 | 0.00 | 0.00 | 83 | 1011.3 |
| 20260506144547 | 15 | 161 | 16.1 | 38.6 | 0.00 | 0.00 | 0.00 | 82 | 1011.2 |
| 20260506143039 | 16 | 221 | 14.5 | 32.2 | 0.00 | 0.00 | 0.00 | 81 | 1011.6 |
| 20260506141537 | 16 | 217 | 11.3 | 30.6 | 0.00 | 0.00 | 0.00 | 81 | 1011.5 |
| 20260506140052 | 16 | 128 | 14.5 | 37.0 | 0.00 | 0.00 | 0.00 | 82 | 1011.7 |
| 20260506134535 | 15 | 206 | 14.5 | 29.0 | 0.00 | 0.00 | 0.00 | 83 | 1012.0 |
| 20260506133046 | 15 | 190 | 16.1 | 37.0 | 0.00 | 0.00 | 0.00 | 83 | 1011.8 |
| 20260506131540 | 15 | 216 | 14.5 | 29.0 | 0.00 | 0.00 | 0.00 | 84 | 1011.7 |
| 20260506130040 | 15 | 167 | 17.7 | 37.0 | 0.00 | 0.00 | 0.00 | 84 | 1011.8 |
| 20260506124534 | 15 | 192 | 11.3 | 30.6 | 0.00 | 0.00 | 0.00 | 83 | 1011.6 |
| 20260506123034 | 15 | 190 | 17.7 | 33.8 | 0.00 | 0.00 | 0.00 | 83 | 1012.0 |
| 20260506121541 | 15 | 197 | 17.7 | 33.8 | 0.00 | 0.00 | 0.00 | 83 | 1012.2 |
| 20260506120042 | 15 | 149 | 14.5 | 35.4 | 0.00 | 0.00 | 0.00 | 84 | 1012.1 |
| 20260506114538 | 15 | 182 | 11.3 | 27.4 | 0.00 | 0.00 | 0.00 | 85 | 1012.0 |
| 20260506113045 | 14 | 192 | 12.9 | 29.0 | 0.00 | 0.00 | 0.00 | 86 | 1011.9 |
| 20260506111534 | 14 | 214 | 11.3 | 27.4 | 0.00 | 0.00 | 0.00 | 87 | 1012.2 |
| 20260506110041 | 13 | 203 | 14.5 | 30.6 | 0.00 | 0.00 | 0.00 | 88 | 1012.1 |
| 20260506104546 | 13 | 192 | 16.1 | 30.6 | 0.00 | 0.00 | 0.00 | 88 | 1012.0 |
| 20260506103041 | 13 | 179 | 12.9 | 30.6 | 0.00 | 0.00 | 0.00 | 89 | 1011.8 |
| 20260506101547 | 13 | 218 | 14.5 | 29.0 | 0.00 | 0.00 | 0.00 | 89 | 1011.9 |
| 20260506100037 | 13 | 203 | 11.3 | 27.4 | 0.00 | 0.00 | 0.00 | 89 | 1012.0 |
| 20260506094536 | 13 | 213 | 12.9 | 29.0 | 0.00 | 0.00 | 0.00 | 89 | 1011.9 |
| 20260506093041 | 13 | 224 | 14.5 | 30.6 | 0.00 | 0.00 | 0.00 | 89 | 1011.8 |
| 20260506091535 | 13 | 145 | 12.9 | 35.4 | 0.00 | 0.00 | 0.00 | 88 | 1011.9 |
| 20260506090038 | 13 | 212 | 14.5 | 32.2 | 0.00 | 0.00 | 0.00 | 88 | 1012.0 |
| 20260506084542 | 13 | 163 | 9.7 | 25.7 | 0.00 | 0.00 | 0.00 | 88 | 1012.3 |
| 20260506083038 | 13 | 180 | 11.3 | 29.0 | 0.00 | 0.00 | 0.00 | 87 | 1012.2 |
| 20260506081536 | 13 | 131 | 11.3 | 32.2 | 0.00 | 0.00 | 0.00 | 87 | 1012.4 |
| 20260506073039 | 13 | 192 | 12.9 | 33.8 | 0.00 | 0.00 | 0.00 | 86 | 1012.5 |
| 20260506071538 | 13 | 162 | 12.9 | 29.0 | 0.00 | 0.00 | 0.00 | 85 | 1012.6 |
| 20260506061538 | 14 | 211 | 14.5 | 38.6 | 0.00 | 0.00 | 0.00 | 83 | 1012.4 |
| 20260506044537 | 15 | 201 | 11.3 | 35.4 | 0.00 | 0.00 | 0.00 | 81 | 1012.8 |
| 20260506043042 | 15 | 174 | 14.5 | 40.2 | 0.00 | 0.00 | 0.00 | 80 | 1012.8 |
| 20260506041540 | 15 | 167 | 14.5 | 41.8 | 0.00 | 0.00 | 0.00 | 80 | 1012.8 |
| 20260506040042 | 15 | 163 | 17.7 | 37.0 | 0.00 | 0.00 | 0.00 | 80 | 1013.0 |
| 20260506034535 | 15 | 225 | 9.7 | 25.7 | 0.00 | 0.00 | 0.00 | 80 | 1012.7 |
| 20260506033042 | 15 | 247 | 17.7 | 33.8 | 0.00 | 0.00 | 0.00 | 80 | 1012.8 |
| 20260506031542 | 15 | 225 | 11.3 | 30.6 | 0.00 | 0.00 | 0.00 | 79 | 1012.6 |
| 20260506030040 | 15 | 191 | 12.9 | 32.2 | 0.00 | 0.00 | 0.00 | 79 | 1012.8 |
| 20260506024536 | 15 | 202 | 12.9 | 35.4 | 0.00 | 0.00 | 0.00 | 79 | 1012.8 |
| 20260506023048 | 15 | 188 | 16.1 | 46.7 | 0.00 | 0.00 | 0.00 | 78 | 1012.8 |
| 20260506021550 | 15 | 218 | 9.7 | 33.8 | 0.00 | 0.00 | 0.00 | 78 | 1012.9 |
| 20260506020040 | 15 | 134 | 16.1 | 37.0 | 0.00 | 0.00 | 0.00 | 77 | 1012.8 |
| 20260506014540 | 16 | 218 | 17.7 | 40.2 | 0.00 | 0.00 | 0.00 | 75 | 1012.7 |
| 20260506013035 | 16 | 209 | 16.1 | 37.0 | 0.00 | 0.00 | 0.00 | 73 | 1012.4 |
| 20260506011542 | 17 | 180 | 17.7 | 40.2 | 0.00 | 0.00 | 0.00 | 70 | 1012.3 |
| 20260506010050 | 17 | 134 | 19.3 | 41.8 | 0.00 | 0.00 | 0.00 | 70 | 1012.0 |
| 20260506004551 | 16 | 222 | 16.1 | 37.0 | 0.00 | 0.00 | 0.00 | 71 | 1011.8 |
| 20260506003038 | 16 | 214 | 14.5 | 41.8 | 0.00 | 0.00 | 0.00 | 71 | 1011.6 |
| 20260506001543 | 17 | 197 | 16.1 | 45.1 | 0.00 | 0.00 | 0.00 | 71 | 1011.5 |
| 20260506000043 | 16 | 176 | 19.3 | 40.2 | 0.00 | 0.00 | 0.00 | 71 | 1011.4 |
| 20260505234600 | 16 | 195 | 16.1 | 38.6 | 0.00 | 0.00 | 0.00 | 71 | 1011.1 |
| 20260505233039 | 16 | 211 | 17.7 | 37.0 | 0.00 | 0.00 | 0.00 | 71 | 1011.1 |
| 20260505231535 | 17 | 204 | 12.9 | 41.8 | 0.00 | 0.00 | 0.00 | 70 | 1010.7 |
| 20260505230036 | 17 | 273 | 17.7 | 43.5 | 0.00 | 0.00 | 0.00 | 69 | 1010.5 |
| 20260505224540 | 17 | 172 | 19.3 | 40.2 | 0.00 | 0.00 | 0.00 | 68 | 1010.7 |
| 20260505223040 | 17 | 206 | 12.9 | 41.8 | 0.00 | 0.00 | 0.00 | 67 | 1010.5 |
| 20260505221539 | 17 | 215 | 14.5 | 48.3 | 0.00 | 0.00 | 0.00 | 67 | 1010.4 |
| 20260505220048 | 18 | 216 | 17.7 | 33.8 | 0.00 | 0.00 | 0.00 | 66 | 1010.2 |
| 20260505214600 | 18 | 184 | 17.7 | 37.0 | 0.00 | 0.00 | 0.00 | 64 | 1010.2 |
| 20260505213051 | 18 | 175 | 16.1 | 41.8 | 0.00 | 0.00 | 0.00 | 63 | 1010.0 |
| 20260505211537 | 19 | 289 | 9.7 | 22.5 | 0.00 | 0.00 | 0.00 | 63 | 1009.9 |
| 20260505210037 | 19 | 207 | 8.0 | 25.7 | 0.00 | 0.00 | 0.00 | 63 | 1009.8 |
| 20260505204542 | 19 | 350 | 12.9 | 29.0 | 0.00 | 0.00 | 0.00 | 64 | 1009.9 |
| 20260505203047 | 19 | 186 | 11.3 | 25.7 | 0.00 | 0.00 | 0.00 | 65 | 1010.0 |
| 20260505201542 | 18 | 180 | 9.7 | 22.5 | 0.00 | 0.00 | 0.00 | 66 | 1010.1 |
| 20260505200048 | 19 | 165 | 12.9 | 25.7 | 0.00 | 0.00 | 0.00 | 65 | 1010.2 |
| 20260505194546 | 20 | 201 | 11.3 | 24.1 | 0.00 | 0.00 | 0.00 | 65 | 1010.3 |
| 20260505193037 | 20 | 180 | 9.7 | 20.9 | 0.00 | 0.00 | 0.00 | 65 | 1010.6 |
| 20260505191537 | 18 | 175 | 9.7 | 25.7 | 0.00 | 0.00 | 0.00 | 67 | 1010.9 |
| 20260505190037 | 18 | 186 | 8.0 | 25.7 | 0.00 | 0.00 | 0.00 | 68 | 1011.1 |
| 20260505184540 | 19 | 155 | 11.3 | 24.1 | 0.00 | 0.00 | 0.00 | 68 | 1011.2 |
| 20260505183039 | 19 | 158 | 11.3 | 22.5 | 0.00 | 0.00 | 0.00 | 68 | 1011.3 |
| 20260505181537 | 19 | 180 | 9.7 | 25.7 | 0.00 | 0.00 | 0.00 | 68 | 1011.5 |
| 20260505180100 | 19 | 195 | 11.3 | 20.9 | 0.00 | 0.00 | 0.00 | 68 | 1011.6 |
| 20260505174556 | 18 | 175 | 8.0 | 32.2 | 0.00 | 0.00 | 0.00 | 69 | 1011.6 |
| 20260505173044 | 18 | 153 | 8.0 | 24.1 | 0.00 | 0.00 | 0.00 | 71 | 1011.7 |
| 20260505171535 | 18 | 222 | 9.7 | 27.4 | 0.00 | 0.00 | 0.00 | 71 | 1011.9 |
| 20260505170034 | 18 | 174 | 9.7 | 32.2 | 0.00 | 0.00 | 0.00 | 69 | 1011.7 |
| 20260505164535 | 18 | 101 | 8.0 | 24.1 | 0.00 | 0.00 | 0.00 | 69 | 1011.9 |
| 20260505163041 | 18 | 137 | 8.0 | 24.1 | 0.00 | 0.00 | 0.00 | 70 | 1012.1 |